createdAt,value
2022-09-09T00:00:25.786Z,14.20
2022-09-09T00:02:11.488Z,14.30
2022-09-09T00:03:53.674Z,14.30
2022-09-09T00:05:37.570Z,14.30
2022-09-09T00:07:22.999Z,14.30
2022-09-09T00:09:08.823Z,14.30
2022-09-09T00:10:43.121Z,14.30
2022-09-09T00:12:26.949Z,14.30
2022-09-09T00:14:09.211Z,14.30
2022-09-09T00:15:59.787Z,14.30
2022-09-09T00:17:41.657Z,14.40
2022-09-09T00:19:24.407Z,14.30
2022-09-09T00:21:07.089Z,14.40
2022-09-09T00:22:49.879Z,14.40
2022-09-09T00:24:36.522Z,14.40
2022-09-09T00:26:21.385Z,14.40
2022-09-09T00:27:54.313Z,14.40
2022-09-09T00:29:38.136Z,14.40
2022-09-09T00:31:21.737Z,14.40
2022-09-09T00:33:00.131Z,14.40
2022-09-09T00:34:35.334Z,14.40
2022-09-09T00:36:17.670Z,14.40
2022-09-09T00:37:56.410Z,14.40
2022-09-09T00:39:39.632Z,14.40
2022-09-09T00:41:23.635Z,14.40
2022-09-09T00:43:26.983Z,14.50
2022-09-09T00:45:13.260Z,14.40
2022-09-09T00:47:06.662Z,14.50
2022-09-09T00:48:56.686Z,14.50
2022-09-09T00:50:47.372Z,14.50
2022-09-09T00:52:34.548Z,14.50
2022-09-09T00:54:29.946Z,14.50
2022-09-09T00:56:15.355Z,14.50
2022-09-09T00:57:53.781Z,14.50
2022-09-09T00:59:38.185Z,14.50
2022-09-09T01:01:20.682Z,14.50
2022-09-09T01:03:26.301Z,14.50
2022-09-09T01:05:17.236Z,14.40
2022-09-09T01:07:07.338Z,14.40
2022-09-09T01:09:11.168Z,14.40
2022-09-09T01:10:55.902Z,14.40
2022-09-09T01:12:46.172Z,14.40
2022-09-09T01:14:47.400Z,14.40
2022-09-09T01:16:26.685Z,14.30
2022-09-09T01:18:14.322Z,14.30
2022-09-09T01:20:05.385Z,14.30
2022-09-09T01:21:58.782Z,14.30
2022-09-09T01:23:55.478Z,14.30
2022-09-09T01:26:15.377Z,14.30
2022-09-09T01:27:50.676Z,14.30
2022-09-09T01:29:24.574Z,14.20
2022-09-09T01:30:59.644Z,14.20
2022-09-09T01:32:44.910Z,14.20
2022-09-09T01:34:20.088Z,14.20
2022-09-09T01:36:01.982Z,14.20
2022-09-09T01:37:40.547Z,14.10
2022-09-09T01:39:14.759Z,14.10
2022-09-09T01:40:50.127Z,14.10
2022-09-09T01:42:24.754Z,14.20
2022-09-09T01:43:59.532Z,14.10
2022-09-09T01:45:32.805Z,14.10
2022-09-09T01:47:07.856Z,14.10
2022-09-09T01:48:47.184Z,14.10
2022-09-09T01:50:22.160Z,14.10
2022-09-09T01:51:58.274Z,14.10
2022-09-09T01:53:36.658Z,14.10
2022-09-09T01:55:11.703Z,14.10
2022-09-09T01:57:03.900Z,14.10
2022-09-09T01:58:57.678Z,14.10
2022-09-09T02:00:34.940Z,14.00
2022-09-09T02:02:17.236Z,14.10
2022-09-09T02:04:07.248Z,14.10
2022-09-09T02:05:45.552Z,14.10
2022-09-09T02:07:41.902Z,14.10
2022-09-09T02:09:29.388Z,14.10
2022-09-09T02:11:08.971Z,14.10
2022-09-09T02:12:54.976Z,14.10
2022-09-09T02:14:37.979Z,14.00
2022-09-09T02:16:21.551Z,14.00
2022-09-09T02:18:00.516Z,14.00
2022-09-09T02:19:38.639Z,14.00
2022-09-09T02:21:20.647Z,14.00
2022-09-09T02:22:57.596Z,14.00
2022-09-09T02:24:42.837Z,13.90
2022-09-09T02:26:24.284Z,13.90
2022-09-09T02:28:04.590Z,13.90
2022-09-09T02:29:43.197Z,13.90
2022-09-09T02:31:20.663Z,13.90
2022-09-09T02:32:58.691Z,13.90
2022-09-09T02:34:49.873Z,13.90
2022-09-09T02:36:26.135Z,13.80
2022-09-09T02:38:05.156Z,13.80
2022-09-09T02:39:39.984Z,13.80
2022-09-09T02:41:16.198Z,13.80
2022-09-09T02:42:51.671Z,13.80
2022-09-09T02:44:27.439Z,13.70
2022-09-09T02:46:14.902Z,13.80
2022-09-09T02:47:59.850Z,13.70
2022-09-09T02:49:51.062Z,13.70
2022-09-09T02:51:37.564Z,13.70
2022-09-09T02:53:22.025Z,13.70
2022-09-09T02:55:12.267Z,13.60
2022-09-09T02:56:55.101Z,13.60
2022-09-09T02:58:34.975Z,13.60
2022-09-09T03:00:50.542Z,13.60
2022-09-09T03:02:26.834Z,13.60
2022-09-09T03:04:06.692Z,13.50
2022-09-09T03:05:40.389Z,13.50
2022-09-09T03:07:14.237Z,13.50
2022-09-09T03:08:50.698Z,13.50
2022-09-09T03:10:29.664Z,13.40
2022-09-09T03:12:05.009Z,13.40
2022-09-09T03:13:40.071Z,13.40
2022-09-09T03:15:13.989Z,13.40
2022-09-09T03:16:47.632Z,13.30
2022-09-09T03:18:22.920Z,13.40
2022-09-09T03:19:59.037Z,13.40
2022-09-09T03:21:31.844Z,13.30
2022-09-09T03:23:06.021Z,13.30
2022-09-09T03:24:39.425Z,13.30
2022-09-09T03:26:16.245Z,13.30
2022-09-09T03:27:55.785Z,13.40
2022-09-09T03:29:30.384Z,13.30
2022-09-09T03:31:07.134Z,13.30
2022-09-09T03:32:48.920Z,13.30
2022-09-09T03:34:23.657Z,13.30
2022-09-09T03:35:57.573Z,13.30
2022-09-09T03:37:32.778Z,13.30
2022-09-09T03:39:05.164Z,13.30
2022-09-09T03:40:38.572Z,13.30
2022-09-09T03:42:15.085Z,13.30
2022-09-09T03:43:48.470Z,13.30
2022-09-09T03:45:22.108Z,13.30
2022-09-09T03:46:55.490Z,13.30
2022-09-09T03:48:29.985Z,13.30
2022-09-09T03:50:09.293Z,13.30
2022-09-09T03:51:43.823Z,13.30
2022-09-09T03:53:22.145Z,13.30
2022-09-09T03:54:57.804Z,13.30
2022-09-09T03:56:31.072Z,13.30
2022-09-09T03:58:04.698Z,13.30
2022-09-09T03:59:39.302Z,13.30
2022-09-09T04:01:17.383Z,13.30
2022-09-09T04:02:54.967Z,13.30
2022-09-09T04:04:28.351Z,13.30
2022-09-09T04:06:07.236Z,13.30
2022-09-09T04:07:43.157Z,13.30
2022-09-09T04:09:16.828Z,13.30
2022-09-09T04:10:50.919Z,13.30
2022-09-09T04:12:25.196Z,13.30
2022-09-09T04:13:57.454Z,13.30
2022-09-09T04:15:31.165Z,13.30
2022-09-09T04:17:07.157Z,13.30
2022-09-09T04:18:40.956Z,13.30
2022-09-09T04:20:14.551Z,13.30
2022-09-09T04:21:52.137Z,13.30
2022-09-09T04:23:30.426Z,13.40
2022-09-09T04:25:05.725Z,13.40
2022-09-09T04:26:40.716Z,13.30
2022-09-09T04:28:13.596Z,13.30
2022-09-09T04:29:47.161Z,13.40
2022-09-09T04:31:24.390Z,13.30
2022-09-09T04:33:01.073Z,13.30
2022-09-09T04:34:34.302Z,13.30
2022-09-09T04:36:08.720Z,13.30
2022-09-09T04:37:42.556Z,13.30
2022-09-09T04:39:15.820Z,13.30
2022-09-09T04:40:48.593Z,13.30
2022-09-09T04:42:22.028Z,13.30
2022-09-09T04:43:56.009Z,13.30
2022-09-09T04:45:29.846Z,13.30
2022-09-09T04:47:03.281Z,13.30
2022-09-09T04:48:37.038Z,13.30
2022-09-09T04:50:13.137Z,13.30
2022-09-09T04:51:47.903Z,13.30
2022-09-09T04:53:22.090Z,13.30
2022-09-09T04:54:55.722Z,13.30
2022-09-09T04:56:29.106Z,13.30
2022-09-09T04:58:06.253Z,13.30
2022-09-09T04:59:40.242Z,13.30
2022-09-09T05:01:16.343Z,13.30
2022-09-09T05:02:52.003Z,13.30
2022-09-09T05:04:25.687Z,13.20
2022-09-09T05:06:06.468Z,13.30
2022-09-09T05:07:40.118Z,13.20
2022-09-09T05:09:15.817Z,13.30
2022-09-09T05:10:50.824Z,13.30
2022-09-09T05:12:26.504Z,13.20
2022-09-09T05:13:59.800Z,13.20
2022-09-09T05:15:35.308Z,13.20
2022-09-09T05:17:09.230Z,13.20
2022-09-09T05:18:45.840Z,13.30
2022-09-09T05:20:19.351Z,13.20
2022-09-09T05:21:52.800Z,13.30
2022-09-09T05:23:31.905Z,13.30
2022-09-09T05:25:09.408Z,13.30
2022-09-09T05:26:43.830Z,13.30
2022-09-09T05:28:17.434Z,13.30
2022-09-09T05:29:50.772Z,13.30
2022-09-09T05:31:27.231Z,13.30
2022-09-09T05:33:00.603Z,13.30
2022-09-09T05:34:34.835Z,13.30
2022-09-09T05:36:11.786Z,13.30
2022-09-09T05:37:45.233Z,13.30
2022-09-09T05:39:18.798Z,13.30
2022-09-09T05:40:53.924Z,13.30
2022-09-09T05:42:27.228Z,13.30
2022-09-09T05:44:02.028Z,13.40
2022-09-09T05:45:35.962Z,13.30
2022-09-09T05:47:10.695Z,13.30
2022-09-09T05:48:47.233Z,13.40
2022-09-09T05:50:20.971Z,13.40
2022-09-09T05:51:54.848Z,13.40
2022-09-09T05:53:33.121Z,13.40
2022-09-09T05:55:08.713Z,13.50
2022-09-09T05:56:43.705Z,13.50
2022-09-09T05:58:18.286Z,13.50
2022-09-09T05:59:51.753Z,13.50
2022-09-09T06:01:28.653Z,13.50
2022-09-09T06:03:04.491Z,13.50
2022-09-09T06:04:38.279Z,13.50
2022-09-09T06:06:16.727Z,13.60
2022-09-09T06:07:50.763Z,13.60
2022-09-09T06:09:24.428Z,13.60
2022-09-09T06:11:04.886Z,13.70
2022-09-09T06:12:40.278Z,13.60
2022-09-09T06:14:14.372Z,13.60
2022-09-09T06:15:53.078Z,13.70
2022-09-09T06:17:26.629Z,13.70
2022-09-09T06:19:00.779Z,13.70
2022-09-09T06:20:36.066Z,13.70
2022-09-09T06:22:13.514Z,13.70
2022-09-09T06:23:47.097Z,13.70
2022-09-09T06:25:20.837Z,13.70
2022-09-09T06:26:54.910Z,13.80
2022-09-09T06:28:34.687Z,13.70
2022-09-09T06:30:10.852Z,13.80
2022-09-09T06:31:44.496Z,13.80
2022-09-09T06:33:22.740Z,13.80
2022-09-09T06:34:56.171Z,13.90
2022-09-09T06:36:32.120Z,13.90
2022-09-09T06:38:06.709Z,13.90
2022-09-09T06:39:40.034Z,13.90
2022-09-09T06:41:16.496Z,13.90
2022-09-09T06:42:51.693Z,13.90
2022-09-09T06:44:35.210Z,14.00
2022-09-09T06:46:14.571Z,14.00
2022-09-09T06:47:48.114Z,14.00
2022-09-09T06:49:21.969Z,14.10
2022-09-09T06:51:04.224Z,14.10
2022-09-09T06:52:37.972Z,14.10
2022-09-09T06:54:13.315Z,14.10
2022-09-09T06:55:49.588Z,14.10
2022-09-09T06:57:39.051Z,14.20
2022-09-09T06:59:17.858Z,14.20
2022-09-09T07:00:53.905Z,14.20
2022-09-09T07:02:27.961Z,14.20
2022-09-09T07:04:08.916Z,14.30
2022-09-09T07:05:42.774Z,14.30
2022-09-09T07:07:16.656Z,14.40
2022-09-09T07:08:56.484Z,14.40
2022-09-09T07:10:32.736Z,14.40
2022-09-09T07:12:07.163Z,14.40
2022-09-09T07:13:43.082Z,14.50
2022-09-09T07:15:16.625Z,14.50
2022-09-09T07:16:57.519Z,14.60
2022-09-09T07:18:33.130Z,14.60
2022-09-09T07:20:07.913Z,14.70
2022-09-09T07:21:42.194Z,14.70
2022-09-09T07:23:17.392Z,14.70
2022-09-09T07:24:51.361Z,14.80
2022-09-09T07:26:28.663Z,14.80
2022-09-09T07:28:04.286Z,14.80
2022-09-09T07:29:38.372Z,14.90
2022-09-09T07:31:17.686Z,14.90
2022-09-09T07:32:53.992Z,14.90
2022-09-09T07:34:27.784Z,15.00
2022-09-09T07:36:08.890Z,15.00
2022-09-09T07:37:46.723Z,15.00
2022-09-09T07:39:23.994Z,15.10
2022-09-09T07:41:07.172Z,15.10
2022-09-09T07:42:40.688Z,15.10
2022-09-09T07:44:17.574Z,15.10
2022-09-09T07:46:01.101Z,15.20
2022-09-09T07:47:34.910Z,15.20
2022-09-09T07:49:11.889Z,15.30
2022-09-09T07:50:45.709Z,15.30
2022-09-09T07:52:21.751Z,15.40
2022-09-09T07:54:02.863Z,15.40
2022-09-09T07:55:37.644Z,15.50
2022-09-09T07:57:10.985Z,15.50
2022-09-09T07:58:48.489Z,15.50
2022-09-09T08:00:23.169Z,15.60
2022-09-09T08:02:00.507Z,15.70
2022-09-09T08:03:36.882Z,15.70
2022-09-09T08:05:11.658Z,15.70
2022-09-09T08:06:49.971Z,15.80
2022-09-09T08:08:25.096Z,15.80
2022-09-09T08:09:58.396Z,15.80
2022-09-09T08:11:39.142Z,15.90
2022-09-09T08:13:18.407Z,15.90
2022-09-09T08:14:55.862Z,15.90
2022-09-09T08:16:34.207Z,16.00
2022-09-09T08:18:07.986Z,16.00
2022-09-09T08:19:41.573Z,16.00
2022-09-09T08:21:24.545Z,16.10
2022-09-09T08:22:58.226Z,16.10
2022-09-09T08:24:31.705Z,16.20
2022-09-09T08:26:11.909Z,16.20
2022-09-09T08:27:46.042Z,16.30
2022-09-09T08:29:20.261Z,16.40
2022-09-09T08:30:55.197Z,16.40
2022-09-09T08:32:28.537Z,16.50
2022-09-09T08:34:04.420Z,16.50
2022-09-09T08:35:37.419Z,16.60
2022-09-09T08:37:12.007Z,16.70
2022-09-09T08:38:51.460Z,16.70
2022-09-09T08:40:35.753Z,16.80
2022-09-09T08:42:39.984Z,16.90
2022-09-09T08:44:24.559Z,17.00
2022-09-09T08:46:09.371Z,17.10
2022-09-09T08:47:58.957Z,17.10
2022-09-09T08:50:07.831Z,17.20
2022-09-09T08:51:42.981Z,17.30
2022-09-09T08:53:25.621Z,17.30
2022-09-09T08:55:23.249Z,17.40
2022-09-09T08:56:57.124Z,17.50
2022-09-09T08:58:35.056Z,17.60
2022-09-09T09:00:13.964Z,17.70
2022-09-09T09:02:04.575Z,17.70
2022-09-09T09:03:59.488Z,17.80
2022-09-09T09:05:42.088Z,17.90
2022-09-09T09:07:34.589Z,17.90
2022-09-09T09:09:26.549Z,18.00
2022-09-09T09:11:02.559Z,18.00
2022-09-09T09:12:43.829Z,18.10
2022-09-09T09:14:24.284Z,18.10
2022-09-09T09:16:15.165Z,18.20
2022-09-09T09:17:49.883Z,18.20
2022-09-09T09:19:26.177Z,18.30
2022-09-09T09:21:11.440Z,18.40
2022-09-09T09:22:51.686Z,18.40
2022-09-09T09:24:39.729Z,18.40
2022-09-09T09:26:13.203Z,18.50
2022-09-09T09:28:06.646Z,18.50
2022-09-09T09:30:18.147Z,18.50
2022-09-09T09:31:43.859Z,18.60
2022-09-09T09:33:23.761Z,18.60
2022-09-09T09:35:05.084Z,18.70
2022-09-09T09:36:47.025Z,18.70
2022-09-09T09:40:24.793Z,18.80
2022-09-09T09:42:05.154Z,18.80
2022-09-09T09:43:43.703Z,18.90
2022-09-09T09:45:32.401Z,18.90
2022-09-09T09:47:14.646Z,18.90
2022-09-09T09:48:59.800Z,18.90
2022-09-09T09:50:35.827Z,18.90
2022-09-09T09:52:22.064Z,18.90
2022-09-09T09:53:56.780Z,19.00
2022-09-09T09:55:36.339Z,19.00
2022-09-09T09:57:13.057Z,19.00
2022-09-09T09:58:54.376Z,19.00
2022-09-09T10:00:35.689Z,19.00
2022-09-09T10:02:20.745Z,19.00
2022-09-09T10:04:03.212Z,19.00
2022-09-09T10:05:38.622Z,19.00
2022-09-09T10:07:22.119Z,19.00
2022-09-09T10:08:56.077Z,19.00
2022-09-09T10:10:48.721Z,19.00
2022-09-09T10:12:39.125Z,19.00
2022-09-09T10:14:22.919Z,19.00
2022-09-09T10:16:16.790Z,19.10
2022-09-09T10:18:05.279Z,19.20
2022-09-09T10:19:42.689Z,19.20
2022-09-09T10:21:34.260Z,19.20
2022-09-09T10:23:29.587Z,19.30
2022-09-09T10:25:34.534Z,19.40
2022-09-09T10:27:21.514Z,19.40
2022-09-09T10:29:20.336Z,19.40
2022-09-09T10:31:06.375Z,19.50
2022-09-09T10:32:48.361Z,19.60
2022-09-09T10:34:46.012Z,19.50
2022-09-09T10:36:25.480Z,19.60
2022-09-09T10:38:30.191Z,19.60
2022-09-09T10:40:21.485Z,19.60
2022-09-09T10:42:06.280Z,19.60
2022-09-09T10:44:30.409Z,19.60
2022-09-09T10:46:17.207Z,19.60
2022-09-09T10:48:10.076Z,19.60
2022-09-09T10:50:13.453Z,19.60
2022-09-09T10:52:00.714Z,19.60
2022-09-09T10:54:00.853Z,19.60
2022-09-09T10:55:43.073Z,19.50
2022-09-09T10:57:32.853Z,19.50
2022-09-09T10:59:18.308Z,19.50
2022-09-09T11:00:58.940Z,19.50
2022-09-09T11:02:35.435Z,19.40
2022-09-09T11:04:18.499Z,19.40
2022-09-09T11:05:59.713Z,19.40
2022-09-09T11:07:44.178Z,19.30
2022-09-09T11:09:25.657Z,19.30
2022-09-09T11:11:05.053Z,19.30
2022-09-09T11:12:44.148Z,19.30
2022-09-09T11:14:28.744Z,19.30
2022-09-09T11:16:12.358Z,19.30
2022-09-09T11:17:51.365Z,19.40
2022-09-09T11:19:30.472Z,19.40
2022-09-09T11:21:09.577Z,19.40
2022-09-09T11:22:50.802Z,19.50
2022-09-09T11:24:33.578Z,19.50
2022-09-09T11:26:13.161Z,19.60
2022-09-09T11:28:08.804Z,19.60
2022-09-09T11:30:51.704Z,19.60
2022-09-09T11:32:55.909Z,19.70
2022-09-09T11:34:50.305Z,19.70
2022-09-09T11:37:07.406Z,19.70
2022-09-09T11:38:47.697Z,19.80
2022-09-09T11:40:26.556Z,19.80
2022-09-09T11:42:09.950Z,19.80
2022-09-09T11:43:47.225Z,19.80
2022-09-09T11:45:30.014Z,19.70
2022-09-09T11:47:03.482Z,19.70
2022-09-09T11:48:40.049Z,19.70
2022-09-09T11:50:32.479Z,19.70
2022-09-09T11:52:15.195Z,19.60
2022-09-09T11:53:56.666Z,19.60
2022-09-09T11:55:34.371Z,19.60
2022-09-09T11:57:27.103Z,19.60
2022-09-09T11:59:04.937Z,19.70
2022-09-09T12:00:44.800Z,19.70
2022-09-09T12:02:25.816Z,19.80
2022-09-09T12:04:21.280Z,19.80
2022-09-09T12:05:57.908Z,19.90
2022-09-09T12:07:41.235Z,19.90
2022-09-09T12:09:30.367Z,20.10
2022-09-09T12:11:04.105Z,20.10
2022-09-09T12:12:43.828Z,20.20
2022-09-09T12:14:38.998Z,20.20
2022-09-09T12:16:34.088Z,20.30
2022-09-09T12:18:18.733Z,20.40
2022-09-09T12:20:13.555Z,20.50
2022-09-09T12:21:59.789Z,20.50
2022-09-09T12:23:51.155Z,20.60
2022-09-09T12:25:34.627Z,20.70
2022-09-09T12:27:19.061Z,20.70
2022-09-09T12:29:09.041Z,20.80
2022-09-09T12:31:00.721Z,20.90
2022-09-09T12:32:36.518Z,20.90
2022-09-09T12:34:17.893Z,20.90
2022-09-09T12:35:59.164Z,20.90
2022-09-09T12:37:37.697Z,20.90
2022-09-09T12:39:25.312Z,20.90
2022-09-09T12:41:01.410Z,20.90
2022-09-09T12:42:39.169Z,20.90
2022-09-09T12:44:14.890Z,20.90
2022-09-09T12:45:51.463Z,20.90
2022-09-09T12:47:39.147Z,20.90
2022-09-09T12:49:32.175Z,20.90
2022-09-09T12:51:18.422Z,20.90
2022-09-09T12:52:55.383Z,21.00
2022-09-09T12:54:29.334Z,21.00
2022-09-09T12:56:09.034Z,21.00
2022-09-09T12:57:43.663Z,21.10
2022-09-09T12:59:26.240Z,21.10
2022-09-09T13:01:01.121Z,21.10
2022-09-09T13:02:36.775Z,21.20
2022-09-09T13:04:23.173Z,21.20
2022-09-09T13:06:12.084Z,21.20
2022-09-09T13:07:45.831Z,21.20
2022-09-09T13:09:19.811Z,21.20
2022-09-09T13:11:02.490Z,21.20
2022-09-09T13:12:37.953Z,21.20
2022-09-09T13:14:20.440Z,21.20
2022-09-09T13:15:58.997Z,21.10
2022-09-09T13:17:32.497Z,21.10
2022-09-09T13:19:16.740Z,21.10
2022-09-09T13:20:51.096Z,21.10
2022-09-09T13:22:34.079Z,21.10
2022-09-09T13:24:28.295Z,21.10
2022-09-09T13:26:07.163Z,21.00
2022-09-09T13:27:43.612Z,21.00
2022-09-09T13:29:20.420Z,21.00
2022-09-09T13:31:03.583Z,21.00
2022-09-09T13:32:37.351Z,21.00
2022-09-09T13:34:16.025Z,21.00
2022-09-09T13:35:52.825Z,21.00
2022-09-09T13:37:33.156Z,21.00
2022-09-09T13:39:06.964Z,21.00
2022-09-09T13:40:40.836Z,21.00
2022-09-09T13:42:28.281Z,21.10
2022-09-09T13:44:02.843Z,21.10
2022-09-09T13:45:37.621Z,21.00
2022-09-09T13:47:23.577Z,21.00
2022-09-09T13:48:58.514Z,21.00
2022-09-09T13:50:33.231Z,21.00
2022-09-09T13:52:14.078Z,21.00
2022-09-09T13:53:48.619Z,21.00
2022-09-09T13:55:24.868Z,21.00
2022-09-09T13:56:58.203Z,21.00
2022-09-09T13:58:31.856Z,20.90
2022-09-09T14:00:08.036Z,20.90
2022-09-09T14:01:41.916Z,20.90
2022-09-09T14:03:16.172Z,20.90
2022-09-09T14:04:52.060Z,20.80
2022-09-09T14:06:27.385Z,20.80
2022-09-09T14:08:01.551Z,20.80
2022-09-09T14:09:34.771Z,20.70
2022-09-09T14:11:13.359Z,20.70
2022-09-09T14:12:47.558Z,20.60
2022-09-09T14:14:21.123Z,20.50
2022-09-09T14:15:54.612Z,20.50
2022-09-09T14:17:32.076Z,20.50
2022-09-09T14:19:05.788Z,20.50
2022-09-09T14:20:40.002Z,20.40
2022-09-09T14:22:15.393Z,20.40
2022-09-09T14:23:49.445Z,20.30
2022-09-09T14:25:23.048Z,20.30
2022-09-09T14:26:56.925Z,20.30
2022-09-09T14:28:54.921Z,20.30
2022-09-09T14:30:23.772Z,20.20
2022-09-09T14:31:57.274Z,20.30
2022-09-09T14:33:30.974Z,20.20
2022-09-09T14:35:05.193Z,20.20
2022-09-09T14:36:38.571Z,20.20
2022-09-09T14:38:18.305Z,20.10
2022-09-09T14:39:55.345Z,20.10
2022-09-09T14:41:30.473Z,20.10
2022-09-09T14:43:04.262Z,20.10
2022-09-09T14:44:39.175Z,20.00
2022-09-09T14:46:16.569Z,20.00
2022-09-09T14:47:51.618Z,20.00
2022-09-09T14:49:25.702Z,19.90
2022-09-09T14:50:59.369Z,19.90
2022-09-09T14:52:32.841Z,19.90
2022-09-09T14:54:24.495Z,19.80
2022-09-09T14:56:12.264Z,19.70
2022-09-09T14:57:46.194Z,19.80
2022-09-09T14:59:20.961Z,19.70
2022-09-09T15:00:57.563Z,19.60
2022-09-09T15:02:39.784Z,19.60
2022-09-09T15:04:16.126Z,19.50
2022-09-09T15:05:49.685Z,19.60
2022-09-09T15:07:25.305Z,19.40
2022-09-09T15:09:02.606Z,19.40
2022-09-09T15:10:45.683Z,19.40
2022-09-09T15:12:21.663Z,19.40
2022-09-09T15:13:59.054Z,19.30
2022-09-09T15:15:36.579Z,19.30
2022-09-09T15:17:10.782Z,19.30
2022-09-09T15:18:54.148Z,19.20
2022-09-09T15:20:28.116Z,19.20
2022-09-09T15:22:06.267Z,19.20
2022-09-09T15:23:45.075Z,19.10
2022-09-09T15:25:18.957Z,19.10
2022-09-09T15:26:54.753Z,19.00
2022-09-09T15:28:30.602Z,19.00
2022-09-09T15:30:07.557Z,19.00
2022-09-09T15:31:40.961Z,18.90
2022-09-09T15:33:15.208Z,18.90
2022-09-09T15:34:52.254Z,18.80
2022-09-09T15:36:33.320Z,18.80
2022-09-09T15:38:10.035Z,18.70
2022-09-09T15:39:46.554Z,18.60
2022-09-09T15:41:25.199Z,18.60
2022-09-09T15:43:04.324Z,18.50
2022-09-09T15:44:46.621Z,18.40
2022-09-09T15:46:39.268Z,18.40
2022-09-09T15:48:12.530Z,18.20
2022-09-09T15:49:50.343Z,18.20
2022-09-09T15:51:41.597Z,18.20
2022-09-09T15:53:17.943Z,18.10
2022-09-09T15:54:51.458Z,18.00
2022-09-09T15:56:32.297Z,18.00
2022-09-09T15:58:13.220Z,18.00
2022-09-09T15:59:49.366Z,17.90
2022-09-09T16:01:24.553Z,17.90
2022-09-09T16:03:02.875Z,17.80
2022-09-09T16:04:36.408Z,17.80
2022-09-09T16:06:10.673Z,17.70
2022-09-09T16:07:46.110Z,17.70
2022-09-09T16:09:20.244Z,17.70
2022-09-09T16:10:53.532Z,17.70
2022-09-09T16:12:27.203Z,17.60
2022-09-09T16:14:02.910Z,17.60
2022-09-09T16:15:36.447Z,17.60
2022-09-09T16:17:11.251Z,17.60
2022-09-09T16:18:47.034Z,17.50
2022-09-09T16:20:21.368Z,17.50
2022-09-09T16:21:54.905Z,17.60
2022-09-09T16:23:28.191Z,17.50
2022-09-09T16:25:01.497Z,17.50
2022-09-09T16:26:38.507Z,17.60
2022-09-09T16:28:11.793Z,17.50
2022-09-09T16:29:46.660Z,17.50
2022-09-09T16:31:21.743Z,17.50
2022-09-09T16:32:55.153Z,17.40
2022-09-09T16:34:28.377Z,17.40
2022-09-09T16:36:07.841Z,17.40
2022-09-09T16:37:42.010Z,17.40
2022-09-09T16:39:18.004Z,17.40
2022-09-09T16:40:51.689Z,17.40
2022-09-09T16:42:25.173Z,17.40
2022-09-09T16:44:01.136Z,17.40
2022-09-09T16:45:36.276Z,17.40
2022-09-09T16:47:09.754Z,17.40
2022-09-09T16:48:45.129Z,17.40
2022-09-09T16:50:18.837Z,17.40
2022-09-09T16:51:54.265Z,17.40
2022-09-09T16:53:26.841Z,17.40
2022-09-09T16:55:00.458Z,17.40
2022-09-09T16:56:37.974Z,17.40
2022-09-09T16:58:13.524Z,17.30
2022-09-09T16:59:47.467Z,17.40
2022-09-09T17:01:22.209Z,17.40
2022-09-09T17:02:55.668Z,17.40
2022-09-09T17:04:31.817Z,17.30
2022-09-09T17:06:10.340Z,17.40
2022-09-09T17:07:44.515Z,17.40
2022-09-09T17:09:18.968Z,17.40
2022-09-09T17:10:52.590Z,17.40
2022-09-09T17:12:26.036Z,17.40
2022-09-09T17:14:01.114Z,17.30
2022-09-09T17:15:35.288Z,17.40
2022-09-09T17:17:30.597Z,17.30
2022-09-09T17:19:06.060Z,17.30
2022-09-09T17:20:46.591Z,17.30
2022-09-09T17:22:21.332Z,17.30
2022-09-09T17:23:55.812Z,17.30
2022-09-09T17:25:29.126Z,17.30
2022-09-09T17:27:03.137Z,17.40
2022-09-09T17:28:36.981Z,17.40
2022-09-09T17:30:11.561Z,17.30
2022-09-09T17:31:45.845Z,17.30
2022-09-09T17:33:21.683Z,17.30
2022-09-09T17:34:55.116Z,17.30
2022-09-09T17:36:32.180Z,17.30
2022-09-09T17:38:06.388Z,17.30
2022-09-09T17:39:39.921Z,17.30
2022-09-09T17:41:16.471Z,17.30
2022-09-09T17:42:49.964Z,17.30
2022-09-09T17:44:23.257Z,17.30
2022-09-09T17:45:56.833Z,17.30
2022-09-09T17:47:32.125Z,17.30
2022-09-09T17:49:10.777Z,17.30
2022-09-09T17:50:44.470Z,17.30
2022-09-09T17:52:17.812Z,17.20
2022-09-09T17:53:53.232Z,17.30
2022-09-09T17:55:36.005Z,17.30
2022-09-09T17:57:09.913Z,17.20
2022-09-09T17:58:44.044Z,17.20
2022-09-09T18:00:18.301Z,17.20
2022-09-09T18:01:52.952Z,17.20
2022-09-09T18:03:26.468Z,17.10
2022-09-09T18:05:02.352Z,17.10
2022-09-09T18:06:39.669Z,17.10
2022-09-09T18:08:13.413Z,17.10
2022-09-09T18:09:47.293Z,17.10
2022-09-09T18:11:23.970Z,17.10
2022-09-09T18:12:58.145Z,17.00
2022-09-09T18:14:33.905Z,17.00
2022-09-09T18:16:13.953Z,17.00
2022-09-09T18:17:48.974Z,17.00
2022-09-09T18:19:25.847Z,17.00
2022-09-09T18:21:10.281Z,17.00
2022-09-09T18:22:44.303Z,16.90
2022-09-09T18:24:21.036Z,16.90
2022-09-09T18:25:55.057Z,16.90
2022-09-09T18:27:28.959Z,16.90
2022-09-09T18:29:06.070Z,16.90
2022-09-09T18:30:41.650Z,16.80
2022-09-09T18:32:16.871Z,16.80
2022-09-09T18:33:50.419Z,16.80
2022-09-09T18:35:23.827Z,16.70
2022-09-09T18:36:59.211Z,16.70
2022-09-09T18:38:33.997Z,16.70
2022-09-09T18:40:08.719Z,16.70
2022-09-09T18:41:45.692Z,16.60
2022-09-09T18:43:18.991Z,16.60
2022-09-09T18:44:52.934Z,16.60
2022-09-09T18:46:27.077Z,16.60
2022-09-09T18:48:01.397Z,16.60
2022-09-09T18:49:34.988Z,16.60
2022-09-09T18:51:10.679Z,16.50
2022-09-09T18:52:45.747Z,16.50
2022-09-09T18:54:22.409Z,16.40
2022-09-09T18:56:02.038Z,16.40
2022-09-09T18:57:36.579Z,16.40
2022-09-09T18:59:13.915Z,16.40
2022-09-09T19:00:48.332Z,16.30
2022-09-09T19:02:22.749Z,16.30
2022-09-09T19:03:57.820Z,16.30
2022-09-09T19:05:32.518Z,16.30
2022-09-09T19:07:05.941Z,16.20
2022-09-09T19:08:43.371Z,16.20
2022-09-09T19:10:16.985Z,16.20
2022-09-09T19:11:50.584Z,16.10
2022-09-09T19:13:24.457Z,16.20
2022-09-09T19:14:58.322Z,16.10
2022-09-09T19:16:34.780Z,16.10
2022-09-09T19:18:08.831Z,16.10
2022-09-09T19:19:43.672Z,16.10
2022-09-09T19:21:22.717Z,16.00
2022-09-09T19:22:57.145Z,16.00
2022-09-09T19:24:34.237Z,16.00
2022-09-09T19:26:08.954Z,16.00
2022-09-09T19:27:43.130Z,16.00
2022-09-09T19:29:19.508Z,15.90
2022-09-09T19:30:53.066Z,15.90
2022-09-09T19:32:52.142Z,15.90
2022-09-09T19:34:21.236Z,15.90
2022-09-09T19:36:00.049Z,15.90
2022-09-09T19:37:33.550Z,15.90
2022-09-09T19:39:10.462Z,15.80
2022-09-09T19:40:45.150Z,15.90
2022-09-09T19:42:18.653Z,15.80
2022-09-09T19:43:54.876Z,15.80
2022-09-09T19:45:28.297Z,15.80
2022-09-09T19:47:01.653Z,15.70
2022-09-09T19:48:37.423Z,15.70
2022-09-09T19:50:10.996Z,15.70
2022-09-09T19:51:44.407Z,15.70
2022-09-09T19:53:19.269Z,15.70
2022-09-09T19:54:52.904Z,15.60
2022-09-09T19:56:28.778Z,15.60
2022-09-09T19:58:02.719Z,15.60
2022-09-09T19:59:36.081Z,15.60
2022-09-09T20:01:12.513Z,15.60
2022-09-09T20:03:02.606Z,15.60
2022-09-09T20:04:40.274Z,15.50
2022-09-09T20:06:16.830Z,15.50
2022-09-09T20:07:51.303Z,15.50
2022-09-09T20:09:26.161Z,15.50
2022-09-09T20:11:01.214Z,15.40
2022-09-09T20:12:36.771Z,15.40
2022-09-09T20:14:11.597Z,15.40
2022-09-09T20:15:44.990Z,15.40
2022-09-09T20:17:18.552Z,15.30
2022-09-09T20:18:56.988Z,15.30
2022-09-09T20:20:30.210Z,15.30
2022-09-09T20:22:03.503Z,15.30
2022-09-09T20:23:38.297Z,15.30
2022-09-09T20:25:11.696Z,15.20
2022-09-09T20:26:46.387Z,15.30
2022-09-09T20:28:21.180Z,15.20
2022-09-09T20:29:54.981Z,15.20
2022-09-09T20:31:31.498Z,15.20
2022-09-09T20:33:05.985Z,15.20
2022-09-09T20:34:39.389Z,15.20
2022-09-09T20:36:15.527Z,15.10
2022-09-09T20:37:48.882Z,15.10
2022-09-09T20:39:23.322Z,15.20
2022-09-09T20:40:56.686Z,15.10
2022-09-09T20:42:30.342Z,15.10
2022-09-09T20:44:09.289Z,15.10
2022-09-09T20:45:43.869Z,15.10
2022-09-09T20:47:17.704Z,15.10
2022-09-09T20:48:52.302Z,15.10
2022-09-09T20:50:25.932Z,15.10
2022-09-09T20:51:59.876Z,15.10
2022-09-09T20:53:35.521Z,15.10
2022-09-09T20:55:10.301Z,15.00
2022-09-09T20:56:46.246Z,15.00
2022-09-09T20:58:19.646Z,15.00
2022-09-09T20:59:54.333Z,15.00
2022-09-09T21:01:27.950Z,15.00
2022-09-09T21:03:02.232Z,15.00
2022-09-09T21:04:38.318Z,15.00
2022-09-09T21:06:12.646Z,15.00
2022-09-09T21:07:46.220Z,15.00
2022-09-09T21:09:20.333Z,15.00
2022-09-09T21:10:53.882Z,15.00
2022-09-09T21:12:27.107Z,15.00
2022-09-09T21:14:00.380Z,15.00